
Distance (Route):
Temperature : -15.7°C
Humidity : 0%
Pressure : 0hPa| Receiver | Frames | First received | Last received |
|---|---|---|---|
| WB7NNF | 340 | 2026-09-04 05:45:32 | 2026-09-04 07:53:09 |
| Receiver | Date | Latitude | Longitude | Direction | Speed | Altitude | Climb | Temperature | Humidity | Pressure | Voltage | Killtimer | Uptime | BKT | XDATA |
|---|---|---|---|---|---|---|---|---|---|---|---|---|---|---|---|
| WB7NNF | 2026-09-04 07:53:09 | 48.41469 | -117.53757 | 360° | 42km/h | 5523m | -8.2m/s | -15.7°C | 0% | 0hPa | 0V | 00:00:00 | 00:00:00 | 00:00:00 | |
| WB7NNF | 2026-09-04 07:52:41 | 48.41179 | -117.53761 | 5° | 44km/h | 5748m | -9.0m/s | -17.6°C | 0% | 0hPa | 0V | 00:00:00 | 00:00:00 | 00:00:00 | |
| WB7NNF | 2026-09-04 07:52:19 | 48.40894 | -117.53837 | 11° | 58km/h | 5931m | -9.0m/s | -19.1°C | 0% | 0hPa | 0V | 00:00:00 | 00:00:00 | 00:00:00 | |
| WB7NNF | 2026-09-04 07:51:58 | 48.40557 | -117.53961 | 16° | 68km/h | 6119m | -8.8m/s | -20.9°C | 0% | 0hPa | 0V | 00:00:00 | 00:00:00 | 00:00:00 | |
| WB7NNF | 2026-09-04 07:51:36 | 48.40164 | -117.54107 | 10° | 84km/h | 6309m | -8.4m/s | -22.1°C | 0% | 0hPa | 0V | 00:00:00 | 00:00:00 | 00:00:00 | |
| WB7NNF | 2026-09-04 07:51:14 | 48.39730 | -117.54121 | 359° | 77km/h | 6507m | -9.3m/s | -22.7°C | 0% | 0hPa | 0V | 00:00:00 | 00:00:00 | 00:00:00 | |
| WB7NNF | 2026-09-04 07:50:53 | 48.39361 | -117.54084 | 354° | 69km/h | 6696m | -7.6m/s | -24.0°C | 0% | 0hPa | 0V | 00:00:00 | 00:00:00 | 00:00:00 | |
| WB7NNF | 2026-09-04 07:50:33 | 48.39017 | -117.54025 | 354° | 71km/h | 6881m | -8.7m/s | -25.6°C | 0% | 0hPa | 0V | 00:00:00 | 00:00:00 | 00:00:00 | |
| WB7NNF | 2026-09-04 07:49:42 | 48.38056 | -117.53882 | 354° | 78km/h | 7350m | -9.4m/s | -29.2°C | 0% | 0hPa | 0V | 00:00:00 | 00:00:00 | 00:00:00 | |
| WB7NNF | 2026-09-04 07:49:21 | 48.37646 | -117.53779 | 353° | 86km/h | 7539m | -9.5m/s | -30.5°C | 0% | 0hPa | 0V | 00:00:00 | 00:00:00 | 00:00:00 | |
| WB7NNF | 2026-09-04 07:48:59 | 48.37140 | -117.53669 | 354° | 97km/h | 7744m | -8.9m/s | -32.1°C | 0% | 0hPa | 0V | 00:00:00 | 00:00:00 | 00:00:00 | |
| WB7NNF | 2026-09-04 07:48:37 | 48.36592 | -117.53593 | 358° | 102km/h | 7955m | -9.9m/s | -33.7°C | 0% | 0hPa | 0V | 00:00:00 | 00:00:00 | 00:00:00 | |
| WB7NNF | 2026-09-04 07:48:16 | 48.36012 | -117.53533 | 357° | 108km/h | 8174m | -10.4m/s | -35.6°C | 0% | 0hPa | 0V | 00:00:00 | 00:00:00 | 00:00:00 | |
| WB7NNF | 2026-09-04 07:47:54 | 48.35446 | -117.53477 | 358° | 108km/h | 8396m | -9.9m/s | -37.6°C | 0% | 0hPa | 0V | 00:00:00 | 00:00:00 | 00:00:00 | |
| WB7NNF | 2026-09-04 07:47:33 | 48.34876 | -117.53464 | 360° | 111km/h | 8606m | -10.6m/s | -39.5°C | 0% | 0hPa | 0V | 00:00:00 | 00:00:00 | 00:00:00 | |
| WB7NNF | 2026-09-04 07:47:13 | 48.34269 | -117.53455 | 357° | 113km/h | 8829m | -11.1m/s | -41.4°C | 0% | 0hPa | 0V | 00:00:00 | 00:00:00 | 00:00:00 | |
| WB7NNF | 2026-09-04 07:46:52 | 48.33655 | -117.53410 | 356° | 113km/h | 9044m | -10.0m/s | -43.3°C | 0% | 0hPa | 0V | 00:00:00 | 00:00:00 | 00:00:00 | |
| WB7NNF | 2026-09-04 07:46:31 | 48.33087 | -117.53302 | 354° | 117km/h | 9257m | -10.4m/s | -45.2°C | 0% | 0hPa | 0V | 00:00:00 | 00:00:00 | 00:00:00 | |
| WB7NNF | 2026-09-04 07:46:11 | 48.32488 | -117.53185 | 354° | 111km/h | 9491m | -11.2m/s | -47.2°C | 0% | 0hPa | 0V | 00:00:00 | 00:00:00 | 00:00:00 | |
| WB7NNF | 2026-09-04 07:45:50 | 48.31906 | -117.53114 | 361° | 119km/h | 9718m | -11.9m/s | -48.9°C | 0% | 0hPa | 0V | 00:00:00 | 00:00:00 | 00:00:00 | |
| WB7NNF | 2026-09-04 07:45:30 | 48.31252 | -117.53096 | 3° | 130km/h | 9942m | -10.6m/s | -50.8°C | 0% | 0hPa | 0V | 00:00:00 | 00:00:00 | 00:00:00 | |
| WB7NNF | 2026-09-04 07:45:09 | 48.30649 | -117.53117 | 4° | 117km/h | 10156m | -11.0m/s | -51.8°C | 0% | 0hPa | 0V | 00:00:00 | 00:00:00 | 00:00:00 | |
| WB7NNF | 2026-09-04 07:44:49 | 48.30019 | -117.53206 | 10° | 119km/h | 10373m | -10.0m/s | -50.0°C | 0% | 0hPa | 0V | 00:00:00 | 00:00:00 | 00:00:00 | |
| WB7NNF | 2026-09-04 07:44:28 | 48.29433 | -117.53376 | 18° | 115km/h | 10590m | -12.5m/s | -48.3°C | 0% | 0hPa | 0V | 00:00:00 | 00:00:00 | 00:00:00 | |
| WB7NNF | 2026-09-04 07:44:08 | 48.28949 | -117.53600 | 18° | 73km/h | 10822m | -11.5m/s | -45.9°C | 0% | 0hPa | 0V | 00:00:00 | 00:00:00 | 00:00:00 | |
| WB7NNF | 2026-09-04 07:43:47 | 48.28603 | -117.53712 | 5° | 64km/h | 11060m | -11.6m/s | -45.8°C | 0% | 0hPa | 0V | 00:00:00 | 00:00:00 | 00:00:00 | |
| WB7NNF | 2026-09-04 07:43:27 | 48.28271 | -117.53731 | 360° | 68km/h | 11315m | -13.5m/s | -45.8°C | 0% | 0hPa | 0V | 00:00:00 | 00:00:00 | 00:00:00 | |
| WB7NNF | 2026-09-04 07:43:06 | 48.27919 | -117.53742 | 361° | 71km/h | 11571m | -13.0m/s | -45.7°C | 0% | 0hPa | 0V | 00:00:00 | 00:00:00 | 00:00:00 | |
| WB7NNF | 2026-09-04 07:42:46 | 48.27522 | -117.53742 | 4° | 77km/h | 11819m | -11.2m/s | -45.5°C | 0% | 0hPa | 0V | 00:00:00 | 00:00:00 | 00:00:00 | |
| WB7NNF | 2026-09-04 07:42:25 | 48.27162 | -117.53767 | 4° | 68km/h | 12073m | -13.2m/s | -45.4°C | 0% | 0hPa | 0V | 00:00:00 | 00:00:00 | 00:00:00 | |
| WB7NNF | 2026-09-04 07:42:05 | 48.26820 | -117.53783 | 4° | 62km/h | 12347m | -13.9m/s | -45.2°C | 0% | 0hPa | 0V | 00:00:00 | 00:00:00 | 00:00:00 | |
| WB7NNF | 2026-09-04 07:41:44 | 48.26479 | -117.53820 | 6° | 64km/h | 12637m | -11.9m/s | -45.3°C | 0% | 0hPa | 0V | 00:00:00 | 00:00:00 | 00:00:00 | |
| WB7NNF | 2026-09-04 07:41:23 | 48.26129 | -117.53873 | 6° | 69km/h | 12888m | -11.3m/s | -45.9°C | 0% | 0hPa | 0V | 00:00:00 | 00:00:00 | 00:00:00 | |
| WB7NNF | 2026-09-04 07:41:03 | 48.25792 | -117.53930 | 6° | 62km/h | 13152m | -16.0m/s | -46.7°C | 0% | 0hPa | 0V | 00:00:00 | 00:00:00 | 00:00:00 | |
| WB7NNF | 2026-09-04 07:40:42 | 48.25476 | -117.53960 | 6° | 69km/h | 13401m | -12.3m/s | -47.4°C | 0% | 0hPa | 0V | 00:00:00 | 00:00:00 | 00:00:00 | |
| WB7NNF | 2026-09-04 07:40:22 | 48.25078 | -117.54071 | 19° | 80km/h | 13663m | -10.7m/s | -48.0°C | 0% | 0hPa | 0V | 00:00:00 | 00:00:00 | 00:00:00 | |
| WB7NNF | 2026-09-04 07:40:01 | 48.24693 | -117.54277 | 22° | 77km/h | 13898m | -12.8m/s | -48.5°C | 0% | 0hPa | 0V | 00:00:00 | 00:00:00 | 00:00:00 | |
| WB7NNF | 2026-09-04 07:39:41 | 48.24260 | -117.54497 | 22° | 88km/h | 14156m | -14.3m/s | -48.7°C | 0% | 0hPa | 0V | 00:00:00 | 00:00:00 | 00:00:00 | |
| WB7NNF | 2026-09-04 07:39:20 | 48.23929 | -117.54739 | 29° | 60km/h | 14425m | -14.5m/s | -49.3°C | 0% | 0hPa | 0V | 00:00:00 | 00:00:00 | 00:00:00 | |
| WB7NNF | 2026-09-04 07:39:00 | 48.23689 | -117.54967 | 28° | 46km/h | 14681m | -12.1m/s | -49.6°C | 0% | 0hPa | 0V | 00:00:00 | 00:00:00 | 00:00:00 | |
| WB7NNF | 2026-09-04 07:38:39 | 48.23490 | -117.55187 | 39° | 44km/h | 14968m | -13.8m/s | -49.0°C | 0% | 0hPa | 0V | 00:00:00 | 00:00:00 | 00:00:00 | |
| WB7NNF | 2026-09-04 07:38:19 | 48.23305 | -117.55348 | 21° | 31km/h | 15254m | -12.8m/s | -49.9°C | 0% | 0hPa | 0V | 00:00:00 | 00:00:00 | 00:00:00 | |
| WB7NNF | 2026-09-04 07:37:38 | 48.22959 | -117.55625 | 13° | 40km/h | 15768m | -11.4m/s | -50.3°C | 0% | 0hPa | 0V | 00:00:00 | 00:00:00 | 00:00:00 | |
| WB7NNF | 2026-09-04 07:37:17 | 48.22704 | -117.55653 | 5° | 57km/h | 16035m | -11.2m/s | -49.7°C | 0% | 0hPa | 0V | 00:00:00 | 00:00:00 | 00:00:00 | |
| WB7NNF | 2026-09-04 07:36:57 | 48.22473 | -117.55745 | 28° | 33km/h | 16274m | -11.6m/s | -49.0°C | 0% | 0hPa | 0V | 00:00:00 | 00:00:00 | 00:00:00 | |
| WB7NNF | 2026-09-04 07:36:36 | 48.22332 | -117.55839 | 19° | 27km/h | 16520m | -10.9m/s | -50.5°C | 0% | 0hPa | 0V | 00:00:00 | 00:00:00 | 00:00:00 | |
| WB7NNF | 2026-09-04 07:36:15 | 48.22163 | -117.55863 | 13° | 38km/h | 16753m | -12.6m/s | -50.4°C | 0% | 0hPa | 0V | 00:00:00 | 00:00:00 | 00:00:00 | |
| WB7NNF | 2026-09-04 07:35:55 | 48.21960 | -117.55891 | 13° | 47km/h | 17012m | -12.1m/s | -49.6°C | 0% | 0hPa | 0V | 00:00:00 | 00:00:00 | 00:00:00 | |
| WB7NNF | 2026-09-04 07:35:34 | 48.21714 | -117.55996 | 19° | 53km/h | 17251m | -11.6m/s | -50.4°C | 0% | 0hPa | 0V | 00:00:00 | 00:00:00 | 00:00:00 | |
| WB7NNF | 2026-09-04 07:35:14 | 48.21473 | -117.56110 | 21° | 42km/h | 17508m | -11.6m/s | -51.5°C | 0% | 0hPa | 0V | 00:00:00 | 00:00:00 | 00:00:00 | |
| WB7NNF | 2026-09-04 07:34:53 | 48.21308 | -117.56232 | 23° | 26km/h | 17724m | -11.1m/s | -50.3°C | 0% | 0hPa | 0V | 00:00:00 | 00:00:00 | 00:00:00 | |
| WB7NNF | 2026-09-04 07:34:33 | 48.21203 | -117.56275 | 357° | 20km/h | 17986m | -12.2m/s | -50.7°C | 0% | 0hPa | 0V | 00:00:00 | 00:00:00 | 00:00:00 | |
| WB7NNF | 2026-09-04 07:34:12 | 48.21080 | -117.56258 | 25° | 29km/h | 18276m | -16.6m/s | -51.5°C | 0% | 0hPa | 0V | 00:00:00 | 00:00:00 | 00:00:00 | |
| WB7NNF | 2026-09-04 07:33:52 | 48.20913 | -117.56366 | 37° | 37km/h | 18546m | -15.3m/s | -51.1°C | 0% | 0hPa | 0V | 00:00:00 | 00:00:00 | 00:00:00 | |
| WB7NNF | 2026-09-04 07:33:31 | 48.20797 | -117.56516 | 39° | 26km/h | 18857m | -15.2m/s | -51.1°C | 0% | 0hPa | 0V | 00:00:00 | 00:00:00 | 00:00:00 | |
| WB7NNF | 2026-09-04 07:33:11 | 48.20665 | -117.56576 | 358° | 27km/h | 19196m | -18.2m/s | -50.4°C | 0% | 0hPa | 0V | 00:00:00 | 00:00:00 | 00:00:00 | |
| WB7NNF | 2026-09-04 07:32:46 | 48.20432 | -117.56567 | 4° | 42km/h | 19482m | -9.3m/s | -52.7°C | 0% | 0hPa | 0V | 00:00:00 | 00:00:00 | 00:00:00 | |
| WB7NNF | 2026-09-04 07:32:24 | 48.20221 | -117.56655 | 31° | 31km/h | 19706m | -10.1m/s | -52.6°C | 0% | 0hPa | 0V | 00:00:00 | 00:00:00 | 00:00:00 | |
| WB7NNF | 2026-09-04 07:31:27 | 48.20110 | -117.56985 | 173° | 11km/h | 20269m | -13.8m/s | -53.8°C | 0% | 0hPa | 0V | 00:00:00 | 00:00:00 | 00:00:00 | |
| WB7NNF | 2026-09-04 07:31:06 | 48.20180 | -117.56936 | 258° | 15km/h | 20572m | -16.9m/s | -54.5°C | 0% | 0hPa | 0V | 00:00:00 | 00:00:00 | 00:00:00 | |
| WB7NNF | 2026-09-04 07:30:44 | 48.20184 | -117.56808 | 306° | 20km/h | 20957m | -16.2m/s | -54.6°C | 0% | 0hPa | 0V | 00:00:00 | 00:00:00 | 00:00:00 | |
| WB7NNF | 2026-09-04 07:30:22 | 48.20090 | -117.56696 | 333° | 29km/h | 21327m | -17.5m/s | -53.8°C | 0% | 0hPa | 0V | 00:00:00 | 00:00:00 | 00:00:00 | |
| WB7NNF | 2026-09-04 07:30:01 | 48.19992 | -117.56681 | 13° | 16km/h | 21675m | -18.7m/s | -53.9°C | 0% | 0hPa | 0V | 00:00:00 | 00:00:00 | 00:00:00 | |
| WB7NNF | 2026-09-04 07:29:40 | 48.19995 | -117.56696 | 155° | 15km/h | 22027m | -19.0m/s | -53.1°C | 0% | 0hPa | 0V | 00:00:00 | 00:00:00 | 00:00:00 | |
| WB7NNF | 2026-09-04 07:29:17 | 48.20039 | -117.56647 | 292° | 15km/h | 22448m | -17.0m/s | -52.9°C | 0% | 0hPa | 0V | 00:00:00 | 00:00:00 | 00:00:00 | |
| WB7NNF | 2026-09-04 07:28:55 | 48.20018 | -117.56509 | 309° | 20km/h | 22850m | -24.9m/s | -54.0°C | 0% | 0hPa | 0V | 00:00:00 | 00:00:00 | 00:00:00 | |
| WB7NNF | 2026-09-04 07:28:35 | 48.19957 | -117.56462 | 27° | 13km/h | 23248m | -17.5m/s | -53.2°C | 0% | 0hPa | 0V | 00:00:00 | 00:00:00 | 00:00:00 | |
| WB7NNF | 2026-09-04 07:28:14 | 48.19915 | -117.56500 | 126° | 13km/h | 23684m | -24.2m/s | -51.2°C | 0% | 0hPa | 0V | 00:00:00 | 00:00:00 | 00:00:00 | |
| WB7NNF | 2026-09-04 07:27:53 | 48.19979 | -117.56420 | 279° | 15km/h | 24126m | -21.6m/s | -52.3°C | 0% | 0hPa | 0V | 00:00:00 | 00:00:00 | 00:00:00 | |
| WB7NNF | 2026-09-04 07:27:33 | 48.20005 | -117.56279 | 280° | 20km/h | 24590m | -25.4m/s | -51.8°C | 0% | 0hPa | 0V | 00:00:00 | 00:00:00 | 00:00:00 | |
| WB7NNF | 2026-09-04 07:27:12 | 48.19956 | -117.56205 | 240° | 9km/h | 25063m | -19.5m/s | -52.0°C | 0% | 0hPa | 0V | 00:00:00 | 00:00:00 | 00:00:00 | |
| WB7NNF | 2026-09-04 07:26:52 | 48.19967 | -117.56194 | 268° | 5km/h | 25405m | -14.1m/s | -51.4°C | 0% | 0hPa | 0V | 00:00:00 | 00:00:00 | 00:00:00 | |
| WB7NNF | 2026-09-04 07:26:31 | 48.20005 | -117.56205 | 247° | 9km/h | 25704m | -15.6m/s | -49.7°C | 0% | 0hPa | 0V | 00:00:00 | 00:00:00 | 00:00:00 | |
| WB7NNF | 2026-09-04 07:26:11 | 48.19978 | -117.56078 | 337° | 16km/h | 26161m | -22.7m/s | -49.5°C | 0% | 0hPa | 0V | 00:00:00 | 00:00:00 | 00:00:00 | |
| WB7NNF | 2026-09-04 07:25:50 | 48.19929 | -117.56103 | 172° | 7km/h | 26689m | -26.0m/s | -49.6°C | 0% | 0hPa | 0V | 00:00:00 | 00:00:00 | 00:00:00 | |
| WB7NNF | 2026-09-04 07:25:30 | 48.20023 | -117.56027 | 220° | 33km/h | 27265m | -18.3m/s | -50.4°C | 0% | 0hPa | 0V | 00:00:00 | 00:00:00 | 00:00:00 | |
| WB7NNF | 2026-09-04 07:25:09 | 48.20135 | -117.55890 | 230° | 24km/h | 27572m | -15.2m/s | -51.2°C | 0% | 0hPa | 0V | 00:00:00 | 00:00:00 | 00:00:00 | |
| WB7NNF | 2026-09-04 07:24:49 | 48.20140 | -117.55753 | 274° | 11km/h | 27925m | -16.1m/s | -51.0°C | 0% | 0hPa | 0V | 00:00:00 | 00:00:00 | 00:00:00 | |
| WB7NNF | 2026-09-04 07:24:29 | 48.20125 | -117.55707 | 9° | 16km/h | 28231m | -16.1m/s | -49.7°C | 0% | 0hPa | 0V | 00:00:00 | 00:00:00 | 00:00:00 | |
| WB7NNF | 2026-09-04 07:24:08 | 48.20052 | -117.55765 | 321° | 13km/h | 28581m | -16.3m/s | -47.9°C | 0% | 0hPa | 0V | 00:00:00 | 00:00:00 | 00:00:00 | |
| WB7NNF | 2026-09-04 07:23:47 | 48.20048 | -117.55720 | 278° | 33km/h | 28936m | -17.5m/s | -47.4°C | 0% | 0hPa | 0V | 00:00:00 | 00:00:00 | 00:00:00 | |
| WB7NNF | 2026-09-04 07:23:27 | 48.20042 | -117.55667 | 38° | 2km/h | 29255m | -18.9m/s | -47.2°C | 0% | 0hPa | 0V | 00:00:00 | 00:00:00 | 00:00:00 | |
| WB7NNF | 2026-09-04 07:23:06 | 48.20060 | -117.55614 | 296° | 16km/h | 29679m | -19.5m/s | -46.7°C | 0% | 0hPa | 0V | 00:00:00 | 00:00:00 | 00:00:00 | |
| WB7NNF | 2026-09-04 07:22:44 | 48.20073 | -117.55543 | 229° | 22km/h | 30078m | -18.6m/s | -46.0°C | 0% | 0hPa | 0V | 00:00:00 | 00:00:00 | 00:00:00 | |
| WB7NNF | 2026-09-04 07:22:23 | 48.20138 | -117.55434 | 213° | 26km/h | 30778m | -30.5m/s | -45.8°C | 0% | 0hPa | 0V | 00:00:00 | 00:00:00 | 00:00:00 | |
| WB7NNF | 2026-09-04 07:21:42 | 48.20173 | -117.55282 | 33° | 13km/h | 32058m | -37.6m/s | -41.4°C | 0% | 0hPa | 0V | 00:00:00 | 00:00:00 | 00:00:00 | |
| WB7NNF | 2026-09-04 07:21:21 | 48.20110 | -117.55397 | 31° | 18km/h | 32706m | -27.5m/s | -38.1°C | 0% | 0hPa | 0V | 00:00:00 | 00:00:00 | 00:00:00 | |
| WB7NNF | 2026-09-04 07:21:01 | 48.20050 | -117.55478 | 98° | 15km/h | 33429m | -33.5m/s | -37.7°C | 0% | 0hPa | 0V | 00:00:00 | 00:00:00 | 00:00:00 | |
| WB7NNF | 2026-09-04 07:20:40 | 48.20034 | -117.55448 | 244° | 9km/h | 34121m | -35.1m/s | -37.9°C | 0% | 0hPa | 0V | 00:00:00 | 00:00:00 | 00:00:00 | |
| WB7NNF | 2026-09-04 07:20:20 | 48.20037 | -117.55424 | 333° | 5km/h | 34430m | 5.6m/s | -37.7°C | 0% | 0hPa | 0V | 00:00:00 | 00:00:00 | 00:00:00 | |
| WB7NNF | 2026-09-04 07:19:59 | 48.20023 | -117.55420 | 319° | 35km/h | 34317m | 3.0m/s | -38.4°C | 0% | 0hPa | 0V | 00:00:00 | 00:00:00 | 00:00:00 | |
| WB7NNF | 2026-09-04 07:19:39 | 48.19977 | -117.55361 | 204° | 7km/h | 34203m | 3.3m/s | -38.3°C | 0% | 0hPa | 0V | 00:00:00 | 00:00:00 | 00:00:00 | |
| WB7NNF | 2026-09-04 07:19:18 | 48.19986 | -117.55270 | 216° | 27km/h | 34075m | 1.9m/s | -38.5°C | 0% | 0hPa | 0V | 00:00:00 | 00:00:00 | 00:00:00 | |
| WB7NNF | 2026-09-04 07:18:58 | 48.19993 | -117.55202 | 331° | 20km/h | 33947m | 7.5m/s | -38.6°C | 0% | 0hPa | 0V | 00:00:00 | 00:00:00 | 00:00:00 | |
| WB7NNF | 2026-09-04 07:18:37 | 48.20033 | -117.55127 | 292° | 29km/h | 33829m | 5.1m/s | -38.7°C | 0% | 0hPa | 0V | 00:00:00 | 00:00:00 | 00:00:00 | |
| WB7NNF | 2026-09-04 07:18:17 | 48.20078 | -117.55066 | 339° | 11km/h | 33702m | 6.0m/s | -38.4°C | 0% | 0hPa | 0V | 00:00:00 | 00:00:00 | 00:00:00 | |
| WB7NNF | 2026-09-04 07:17:56 | 48.20079 | -117.55106 | 70° | 11km/h | 33581m | 4.5m/s | -38.1°C | 0% | 0hPa | 0V | 00:00:00 | 00:00:00 | 00:00:00 | |
| WB7NNF | 2026-09-04 07:17:36 | 48.20057 | -117.55248 | 110° | 40km/h | 33445m | 1.1m/s | -38.2°C | 0% | 0hPa | 0V | 00:00:00 | 00:00:00 | 00:00:00 | |
| WB7NNF | 2026-09-04 07:17:15 | 48.19986 | -117.55300 | 336° | 13km/h | 33316m | 5.9m/s | -38.8°C | 0% | 0hPa | 0V | 00:00:00 | 00:00:00 | 00:00:00 | |
| WB7NNF | 2026-09-04 07:16:55 | 48.19895 | -117.55270 | 332° | 18km/h | 33184m | 6.4m/s | -38.4°C | 0% | 0hPa | 0V | 00:00:00 | 00:00:00 | 00:00:00 | |
| WB7NNF | 2026-09-04 07:16:34 | 48.19832 | -117.55296 | 164° | 18km/h | 33053m | 11.4m/s | -38.2°C | 0% | 0hPa | 0V | 00:00:00 | 00:00:00 | 00:00:00 | |
| WB7NNF | 2026-09-04 07:16:13 | 48.19794 | -117.55372 | 78° | 11km/h | 32925m | 5.7m/s | -37.9°C | 0% | 0hPa | 0V | 00:00:00 | 00:00:00 | 00:00:00 | |
| WB7NNF | 2026-09-04 07:15:53 | 48.19720 | -117.55476 | 29° | 42km/h | 32796m | -2.1m/s | -38.2°C | 0% | 0hPa | 0V | 00:00:00 | 00:00:00 | 00:00:00 | |
| WB7NNF | 2026-09-04 07:15:32 | 48.19664 | -117.55610 | 124° | 26km/h | 32668m | 6.5m/s | -38.7°C | 0% | 0hPa | 0V | 00:00:00 | 00:00:00 | 00:00:00 | |
| WB7NNF | 2026-09-04 07:15:12 | 48.19583 | -117.55766 | 75° | 38km/h | 32546m | 2.8m/s | -39.5°C | 0% | 0hPa | 0V | 00:00:00 | 00:00:00 | 00:00:00 | |
| WB7NNF | 2026-09-04 07:14:51 | 48.19518 | -117.55833 | 345° | 57km/h | 32428m | 1.2m/s | -40.0°C | 0% | 0hPa | 0V | 00:00:00 | 00:00:00 | 00:00:00 | |
| WB7NNF | 2026-09-04 07:14:31 | 48.19510 | -117.55903 | 158° | 35km/h | 32301m | 1.6m/s | -41.1°C | 0% | 0hPa | 0V | 00:00:00 | 00:00:00 | 00:00:00 | |
| WB7NNF | 2026-09-04 07:14:10 | 48.19505 | -117.55920 | 340° | 16km/h | 32187m | 9.8m/s | -41.8°C | 0% | 0hPa | 0V | 00:00:00 | 00:00:00 | 00:00:00 | |
| WB7NNF | 2026-09-04 07:13:50 | 48.19448 | -117.55892 | 0° | 0km/h | 32058m | 8.5m/s | -42.8°C | 0% | 0hPa | 0V | 00:00:00 | 00:00:00 | 00:00:00 | |
| WB7NNF | 2026-09-04 07:13:29 | 48.19435 | -117.55797 | 227° | 38km/h | 31937m | 3.8m/s | -43.5°C | 0% | 0hPa | 0V | 00:00:00 | 00:00:00 | 00:00:00 | |
| WB7NNF | 2026-09-04 07:13:09 | 48.19458 | -117.55703 | 306° | 35km/h | 31812m | 3.8m/s | -43.5°C | 0% | 0hPa | 0V | 00:00:00 | 00:00:00 | 00:00:00 | |
| WB7NNF | 2026-09-04 07:12:48 | 48.19504 | -117.55680 | 274° | 13km/h | 31697m | 4.9m/s | -43.4°C | 0% | 0hPa | 0V | 00:00:00 | 00:00:00 | 00:00:00 | |
| WB7NNF | 2026-09-04 07:12:28 | 48.19501 | -117.55679 | 285° | 40km/h | 31575m | 7.4m/s | -43.7°C | 0% | 0hPa | 0V | 00:00:00 | 00:00:00 | 00:00:00 | |
| WB7NNF | 2026-09-04 07:12:07 | 48.19461 | -117.55653 | 205° | 44km/h | 31460m | 7.9m/s | -44.4°C | 0% | 0hPa | 0V | 00:00:00 | 00:00:00 | 00:00:00 | |
| WB7NNF | 2026-09-04 07:11:47 | 48.19470 | -117.55580 | 295° | 57km/h | 31337m | 10.9m/s | -44.4°C | 0% | 0hPa | 0V | 00:00:00 | 00:00:00 | 00:00:00 | |
| WB7NNF | 2026-09-04 07:11:26 | 48.19463 | -117.55478 | 340° | 31km/h | 31218m | -1.1m/s | -45.2°C | 0% | 0hPa | 0V | 00:00:00 | 00:00:00 | 00:00:00 | |
| WB7NNF | 2026-09-04 07:11:04 | 48.19516 | -117.55373 | 231° | 55km/h | 31089m | 0.7m/s | -45.4°C | 0% | 0hPa | 0V | 00:00:00 | 00:00:00 | 00:00:00 | |
| WB7NNF | 2026-09-04 07:10:41 | 48.19571 | -117.55259 | 242° | 37km/h | 30945m | 6.6m/s | -45.8°C | 0% | 0hPa | 0V | 00:00:00 | 00:00:00 | 00:00:00 | |
| WB7NNF | 2026-09-04 07:10:19 | 48.19695 | -117.55132 | 138° | 58km/h | 30811m | 2.9m/s | -46.3°C | 0% | 0hPa | 0V | 00:00:00 | 00:00:00 | 00:00:00 | |
| WB7NNF | 2026-09-04 07:09:57 | 48.19785 | -117.55022 | 296° | 46km/h | 30683m | 0.8m/s | -45.9°C | 0% | 0hPa | 0V | 00:00:00 | 00:00:00 | 00:00:00 | |
| WB7NNF | 2026-09-04 07:09:36 | 48.19837 | -117.55022 | 45° | 11km/h | 30550m | 5.9m/s | -46.2°C | 0% | 0hPa | 0V | 00:00:00 | 00:00:00 | 00:00:00 | |
| WB7NNF | 2026-09-04 07:09:15 | 48.19877 | -117.54976 | 253° | 27km/h | 30429m | 2.1m/s | -46.1°C | 0% | 0hPa | 0V | 00:00:00 | 00:00:00 | 00:00:00 | |
| WB7NNF | 2026-09-04 07:08:53 | 48.19929 | -117.54926 | 186° | 20km/h | 30298m | 7.7m/s | -46.3°C | 0% | 0hPa | 0V | 00:00:00 | 00:00:00 | 00:00:00 | |
| WB7NNF | 2026-09-04 07:08:31 | 48.20037 | -117.54845 | 160° | 18km/h | 30155m | 3.6m/s | -46.3°C | 0% | 0hPa | 0V | 00:00:00 | 00:00:00 | 00:00:00 | |
| WB7NNF | 2026-09-04 07:08:10 | 48.20112 | -117.54785 | 301° | 15km/h | 30029m | -2.3m/s | -46.7°C | 0% | 0hPa | 0V | 00:00:00 | 00:00:00 | 00:00:00 | |
| WB7NNF | 2026-09-04 07:07:48 | 48.20145 | -117.54707 | 292° | 37km/h | 29877m | -0.2m/s | -46.9°C | 0% | 0hPa | 0V | 00:00:00 | 00:00:00 | 00:00:00 | |
| WB7NNF | 2026-09-04 07:07:25 | 48.20165 | -117.54628 | 193° | 31km/h | 29738m | 0.3m/s | -46.9°C | 0% | 0hPa | 0V | 00:00:00 | 00:00:00 | 00:00:00 | |
| WB7NNF | 2026-09-04 07:07:05 | 48.20204 | -117.54502 | 249° | 35km/h | 29610m | -0.5m/s | -47.6°C | 0% | 0hPa | 0V | 00:00:00 | 00:00:00 | 00:00:00 | |
| WB7NNF | 2026-09-04 07:06:44 | 48.20227 | -117.54436 | 187° | 51km/h | 29491m | 15.8m/s | -47.5°C | 0% | 0hPa | 0V | 00:00:00 | 00:00:00 | 00:00:00 | |
| WB7NNF | 2026-09-04 07:06:24 | 48.20284 | -117.54432 | 57° | 16km/h | 29369m | 3.9m/s | -47.4°C | 0% | 0hPa | 0V | 00:00:00 | 00:00:00 | 00:00:00 | |
| WB7NNF | 2026-09-04 07:06:03 | 48.20318 | -117.54424 | 341° | 37km/h | 29253m | 0.2m/s | -47.5°C | 0% | 0hPa | 0V | 00:00:00 | 00:00:00 | 00:00:00 | |
| WB7NNF | 2026-09-04 07:05:43 | 48.20338 | -117.54381 | 3° | 49km/h | 29133m | 4.6m/s | -47.6°C | 0% | 0hPa | 0V | 00:00:00 | 00:00:00 | 00:00:00 | |
| WB7NNF | 2026-09-04 07:05:22 | 48.20358 | -117.54336 | 306° | 27km/h | 29027m | 5.7m/s | -47.9°C | 0% | 0hPa | 0V | 00:00:00 | 00:00:00 | 00:00:00 | |
| WB7NNF | 2026-09-04 07:04:41 | 48.20421 | -117.54223 | 357° | 40km/h | 28797m | 9.1m/s | -48.2°C | 0% | 0hPa | 0V | 00:00:00 | 00:00:00 | 00:00:00 | |
| WB7NNF | 2026-09-04 07:04:20 | 48.20423 | -117.54253 | 43° | 55km/h | 28687m | 7.4m/s | -48.6°C | 0% | 0hPa | 0V | 00:00:00 | 00:00:00 | 00:00:00 | |
| WB7NNF | 2026-09-04 07:04:00 | 48.20384 | -117.54317 | 223° | 13km/h | 28568m | 11.2m/s | -48.3°C | 0% | 0hPa | 0V | 00:00:00 | 00:00:00 | 00:00:00 | |
| WB7NNF | 2026-09-04 07:03:38 | 48.20306 | -117.54336 | 90° | 13km/h | 28435m | 6.6m/s | -48.4°C | 0% | 0hPa | 0V | 00:00:00 | 00:00:00 | 00:00:00 | |
| WB7NNF | 2026-09-04 07:03:17 | 48.20199 | -117.54379 | 253° | 29km/h | 28310m | 1.8m/s | -49.1°C | 0% | 0hPa | 0V | 00:00:00 | 00:00:00 | 00:00:00 | |
| WB7NNF | 2026-09-04 07:02:57 | 48.20104 | -117.54377 | 241° | 44km/h | 28175m | 6.1m/s | -49.8°C | 0% | 0hPa | 0V | 00:00:00 | 00:00:00 | 00:00:00 | |
| WB7NNF | 2026-09-04 07:02:36 | 48.20043 | -117.54308 | 239° | 29km/h | 28048m | 0.6m/s | -49.8°C | 0% | 0hPa | 0V | 00:00:00 | 00:00:00 | 00:00:00 | |
| WB7NNF | 2026-09-04 07:02:15 | 48.20053 | -117.54230 | 244° | 55km/h | 27922m | 8.9m/s | -49.9°C | 0% | 0hPa | 0V | 00:00:00 | 00:00:00 | 00:00:00 | |
| WB7NNF | 2026-09-04 07:01:55 | 48.20071 | -117.54097 | 246° | 51km/h | 27792m | 1.0m/s | -50.3°C | 0% | 0hPa | 0V | 00:00:00 | 00:00:00 | 00:00:00 | |
| WB7NNF | 2026-09-04 07:01:34 | 48.20051 | -117.53958 | 243° | 71km/h | 27668m | 3.6m/s | -50.4°C | 0% | 0hPa | 0V | 00:00:00 | 00:00:00 | 00:00:00 | |
| WB7NNF | 2026-09-04 07:01:14 | 48.20057 | -117.53743 | 251° | 62km/h | 27545m | -0.8m/s | -50.1°C | 0% | 0hPa | 0V | 00:00:00 | 00:00:00 | 00:00:00 | |
| WB7NNF | 2026-09-04 07:00:53 | 48.20097 | -117.53576 | 296° | 51km/h | 27430m | 4.4m/s | -49.9°C | 0% | 0hPa | 0V | 00:00:00 | 00:00:00 | 00:00:00 | |
| WB7NNF | 2026-09-04 07:00:33 | 48.20179 | -117.53465 | 292° | 38km/h | 27310m | 8.2m/s | -49.8°C | 0% | 0hPa | 0V | 00:00:00 | 00:00:00 | 00:00:00 | |
| WB7NNF | 2026-09-04 07:00:12 | 48.20286 | -117.53350 | 257° | 47km/h | 27199m | 3.6m/s | -49.9°C | 0% | 0hPa | 0V | 00:00:00 | 00:00:00 | 00:00:00 | |
| WB7NNF | 2026-09-04 06:59:50 | 48.20400 | -117.53266 | 256° | 22km/h | 27084m | 0.4m/s | -49.8°C | 0% | 0hPa | 0V | 00:00:00 | 00:00:00 | 00:00:00 | |
| WB7NNF | 2026-09-04 06:59:29 | 48.20477 | -117.53215 | 312° | 22km/h | 26972m | -1.7m/s | -49.9°C | 0% | 0hPa | 0V | 00:00:00 | 00:00:00 | 00:00:00 | |
| WB7NNF | 2026-09-04 06:59:09 | 48.20531 | -117.53175 | 116° | 15km/h | 26857m | 3.3m/s | -50.2°C | 0% | 0hPa | 0V | 00:00:00 | 00:00:00 | 00:00:00 | |
| WB7NNF | 2026-09-04 06:58:48 | 48.20577 | -117.53175 | 91° | 15km/h | 26742m | 3.8m/s | -50.4°C | 0% | 0hPa | 0V | 00:00:00 | 00:00:00 | 00:00:00 | |
| WB7NNF | 2026-09-04 06:58:28 | 48.20570 | -117.53221 | 168° | 16km/h | 26622m | 10.0m/s | -50.6°C | 0% | 0hPa | 0V | 00:00:00 | 00:00:00 | 00:00:00 | |
| WB7NNF | 2026-09-04 06:58:07 | 48.20520 | -117.53212 | 350° | 33km/h | 26508m | 2.2m/s | -50.5°C | 0% | 0hPa | 0V | 00:00:00 | 00:00:00 | 00:00:00 | |
| WB7NNF | 2026-09-04 06:57:47 | 48.20390 | -117.53189 | 350° | 44km/h | 26389m | 4.9m/s | -50.2°C | 0% | 0hPa | 0V | 00:00:00 | 00:00:00 | 00:00:00 | |
| WB7NNF | 2026-09-04 06:57:26 | 48.20280 | -117.53111 | 5° | 35km/h | 26272m | 3.8m/s | -49.6°C | 0% | 0hPa | 0V | 00:00:00 | 00:00:00 | 00:00:00 | |
| WB7NNF | 2026-09-04 06:57:04 | 48.20220 | -117.52957 | 271° | 53km/h | 26135m | -0.4m/s | -49.7°C | 0% | 0hPa | 0V | 00:00:00 | 00:00:00 | 00:00:00 | |
| WB7NNF | 2026-09-04 06:56:43 | 48.20197 | -117.52726 | 280° | 40km/h | 26017m | 4.2m/s | -49.8°C | 0% | 0hPa | 0V | 00:00:00 | 00:00:00 | 00:00:00 | |
| WB7NNF | 2026-09-04 06:56:22 | 48.20231 | -117.52520 | 214° | 35km/h | 25880m | 5.2m/s | -49.5°C | 0% | 0hPa | 0V | 00:00:00 | 00:00:00 | 00:00:00 | |
| WB7NNF | 2026-09-04 06:56:00 | 48.20271 | -117.52390 | 204° | 53km/h | 25765m | 9.6m/s | -49.5°C | 0% | 0hPa | 0V | 00:00:00 | 00:00:00 | 00:00:00 | |
| WB7NNF | 2026-09-04 06:55:40 | 48.20334 | -117.52290 | 214° | 57km/h | 25644m | 2.8m/s | -50.0°C | 0% | 0hPa | 0V | 00:00:00 | 00:00:00 | 00:00:00 | |
| WB7NNF | 2026-09-04 06:55:19 | 48.20386 | -117.52299 | 254° | 38km/h | 25524m | 2.8m/s | -50.4°C | 0% | 0hPa | 0V | 00:00:00 | 00:00:00 | 00:00:00 | |
| WB7NNF | 2026-09-04 06:54:57 | 48.20397 | -117.52308 | 58° | 15km/h | 25405m | 6.4m/s | -51.1°C | 0% | 0hPa | 0V | 00:00:00 | 00:00:00 | 00:00:00 | |
| WB7NNF | 2026-09-04 06:54:34 | 48.20423 | -117.52290 | 33° | 46km/h | 25260m | 7.7m/s | -51.3°C | 0% | 0hPa | 0V | 00:00:00 | 00:00:00 | 00:00:00 | |
| WB7NNF | 2026-09-04 06:54:12 | 48.20412 | -117.52360 | 193° | 22km/h | 25135m | 11.1m/s | -51.4°C | 0% | 0hPa | 0V | 00:00:00 | 00:00:00 | 00:00:00 | |
| WB7NNF | 2026-09-04 06:53:51 | 48.20421 | -117.52325 | 211° | 33km/h | 25021m | 10.2m/s | -52.0°C | 0% | 0hPa | 0V | 00:00:00 | 00:00:00 | 00:00:00 | |
| WB7NNF | 2026-09-04 06:53:31 | 48.20404 | -117.52277 | 215° | 35km/h | 24908m | 8.9m/s | -52.1°C | 0% | 0hPa | 0V | 00:00:00 | 00:00:00 | 00:00:00 | |
| WB7NNF | 2026-09-04 06:53:10 | 48.20328 | -117.52190 | 294° | 46km/h | 24788m | 4.3m/s | -52.1°C | 0% | 0hPa | 0V | 00:00:00 | 00:00:00 | 00:00:00 | |
| WB7NNF | 2026-09-04 06:52:48 | 48.20283 | -117.52091 | 234° | 29km/h | 24658m | 10.2m/s | -52.0°C | 0% | 0hPa | 0V | 00:00:00 | 00:00:00 | 00:00:00 | |
| WB7NNF | 2026-09-04 06:52:26 | 48.20322 | -117.51938 | 305° | 37km/h | 24538m | 1.5m/s | -52.1°C | 0% | 0hPa | 0V | 00:00:00 | 00:00:00 | 00:00:00 | |
| WB7NNF | 2026-09-04 06:51:32 | 48.20499 | -117.51693 | 253° | 38km/h | 24244m | 8.7m/s | -52.2°C | 0% | 0hPa | 0V | 00:00:00 | 00:00:00 | 00:00:00 | |
| WB7NNF | 2026-09-04 06:51:01 | 48.20506 | -117.51457 | 287° | 11km/h | 24064m | 9.2m/s | -51.6°C | 0% | 0hPa | 0V | 00:00:00 | 00:00:00 | 00:00:00 | |
| WB7NNF | 2026-09-04 06:50:39 | 48.20551 | -117.51365 | 39° | 26km/h | 23944m | 7.5m/s | -50.9°C | 0% | 0hPa | 0V | 00:00:00 | 00:00:00 | 00:00:00 | |
| WB7NNF | 2026-09-04 06:50:17 | 48.20605 | -117.51293 | 277° | 29km/h | 23834m | 1.8m/s | -50.7°C | 0% | 0hPa | 0V | 00:00:00 | 00:00:00 | 00:00:00 | |
| WB7NNF | 2026-09-04 06:49:54 | 48.20673 | -117.51337 | 80° | 16km/h | 23707m | 1.2m/s | -51.3°C | 0% | 0hPa | 0V | 00:00:00 | 00:00:00 | 00:00:00 | |
| WB7NNF | 2026-09-04 06:49:11 | 48.20585 | -117.51465 | 242° | 35km/h | 23470m | 0.4m/s | -52.7°C | 0% | 0hPa | 0V | 00:00:00 | 00:00:00 | 00:00:00 | |
| WB7NNF | 2026-09-04 06:48:51 | 48.20528 | -117.51423 | 2° | 29km/h | 23353m | 5.1m/s | -52.8°C | 0% | 0hPa | 0V | 00:00:00 | 00:00:00 | 00:00:00 | |
| WB7NNF | 2026-09-04 06:48:27 | 48.20487 | -117.51436 | 316° | 44km/h | 23225m | 8.5m/s | -54.5°C | 0% | 0hPa | 0V | 00:00:00 | 00:00:00 | 00:00:00 | |
| WB7NNF | 2026-09-04 06:48:06 | 48.20382 | -117.51415 | 219° | 27km/h | 23093m | 4.4m/s | -54.6°C | 0% | 0hPa | 0V | 00:00:00 | 00:00:00 | 00:00:00 | |
| WB7NNF | 2026-09-04 06:47:44 | 48.20328 | -117.51328 | 256° | 31km/h | 22981m | 0.4m/s | -54.3°C | 0% | 0hPa | 0V | 00:00:00 | 00:00:00 | 00:00:00 | |
| WB7NNF | 2026-09-04 06:47:23 | 48.20295 | -117.51199 | 284° | 35km/h | 22871m | 2.0m/s | -53.9°C | 0% | 0hPa | 0V | 00:00:00 | 00:00:00 | 00:00:00 | |
| WB7NNF | 2026-09-04 06:47:03 | 48.20291 | -117.51054 | 25° | 13km/h | 22762m | 9.4m/s | -53.8°C | 0% | 0hPa | 0V | 00:00:00 | 00:00:00 | 00:00:00 | |
| WB7NNF | 2026-09-04 06:46:40 | 48.20323 | -117.50928 | 287° | 11km/h | 22653m | 5.0m/s | -54.6°C | 0% | 0hPa | 0V | 00:00:00 | 00:00:00 | 00:00:00 | |
| WB7NNF | 2026-09-04 06:46:16 | 48.20291 | -117.50773 | 196° | 33km/h | 22520m | 3.6m/s | -54.1°C | 0% | 0hPa | 0V | 00:00:00 | 00:00:00 | 00:00:00 | |
| WB7NNF | 2026-09-04 06:45:54 | 48.20296 | -117.50638 | 40° | 22km/h | 22398m | 3.8m/s | -53.8°C | 0% | 0hPa | 0V | 00:00:00 | 00:00:00 | 00:00:00 | |
| WB7NNF | 2026-09-04 06:45:33 | 48.20356 | -117.50605 | 196° | 24km/h | 22283m | 7.4m/s | -53.9°C | 0% | 0hPa | 0V | 00:00:00 | 00:00:00 | 00:00:00 | |
| WB7NNF | 2026-09-04 06:45:12 | 48.20453 | -117.50569 | 219° | 26km/h | 22172m | 7.3m/s | -53.1°C | 0% | 0hPa | 0V | 00:00:00 | 00:00:00 | 00:00:00 | |
| WB7NNF | 2026-09-04 06:44:47 | 48.20542 | -117.50547 | 276° | 24km/h | 22036m | 2.5m/s | -52.6°C | 0% | 0hPa | 0V | 00:00:00 | 00:00:00 | 00:00:00 | |
| WB7NNF | 2026-09-04 06:44:26 | 48.20586 | -117.50587 | 75° | 35km/h | 21918m | 0.7m/s | -53.0°C | 0% | 0hPa | 0V | 00:00:00 | 00:00:00 | 00:00:00 | |
| WB7NNF | 2026-09-04 06:44:04 | 48.20546 | -117.50603 | 282° | 37km/h | 21808m | 7.1m/s | -52.9°C | 0% | 0hPa | 0V | 00:00:00 | 00:00:00 | 00:00:00 | |
| WB7NNF | 2026-09-04 06:43:42 | 48.20512 | -117.50551 | 31° | 9km/h | 21683m | 3.5m/s | -52.7°C | 0% | 0hPa | 0V | 00:00:00 | 00:00:00 | 00:00:00 | |
| WB7NNF | 2026-09-04 06:43:22 | 48.20435 | -117.50560 | 2° | 31km/h | 21581m | 6.5m/s | -53.0°C | 0% | 0hPa | 0V | 00:00:00 | 00:00:00 | 00:00:00 | |
| WB7NNF | 2026-09-04 06:43:00 | 48.20329 | -117.50568 | 276° | 24km/h | 21469m | 4.4m/s | -53.0°C | 0% | 0hPa | 0V | 00:00:00 | 00:00:00 | 00:00:00 | |
| WB7NNF | 2026-09-04 06:42:34 | 48.20174 | -117.50503 | 295° | 53km/h | 21341m | 5.3m/s | -53.2°C | 0% | 0hPa | 0V | 00:00:00 | 00:00:00 | 00:00:00 | |
| WB7NNF | 2026-09-04 06:42:10 | 48.20045 | -117.50373 | 286° | 29km/h | 21217m | 7.5m/s | -53.1°C | 0% | 0hPa | 0V | 00:00:00 | 00:00:00 | 00:00:00 | |
| WB7NNF | 2026-09-04 06:41:45 | 48.19949 | -117.50222 | 328° | 46km/h | 21086m | 7.4m/s | -53.0°C | 0% | 0hPa | 0V | 00:00:00 | 00:00:00 | 00:00:00 | |
| WB7NNF | 2026-09-04 06:41:21 | 48.19917 | -117.50150 | 228° | 27km/h | 20973m | 0.9m/s | -54.5°C | 0% | 0hPa | 0V | 00:00:00 | 00:00:00 | 00:00:00 | |
| WB7NNF | 2026-09-04 06:40:55 | 48.19956 | -117.50001 | 311° | 27km/h | 20839m | 7.1m/s | -53.9°C | 0% | 0hPa | 0V | 00:00:00 | 00:00:00 | 00:00:00 | |
| WB7NNF | 2026-09-04 06:40:35 | 48.19980 | -117.49940 | 269° | 31km/h | 20732m | 0.9m/s | -54.0°C | 0% | 0hPa | 0V | 00:00:00 | 00:00:00 | 00:00:00 | |
| WB7NNF | 2026-09-04 06:40:10 | 48.20068 | -117.49902 | 237° | 33km/h | 20623m | -1.2m/s | -54.0°C | 0% | 0hPa | 0V | 00:00:00 | 00:00:00 | 00:00:00 | |
| WB7NNF | 2026-09-04 06:39:48 | 48.20153 | -117.49843 | 261° | 5km/h | 20513m | 3.4m/s | -54.1°C | 0% | 0hPa | 0V | 00:00:00 | 00:00:00 | 00:00:00 | |
| WB7NNF | 2026-09-04 06:39:03 | 48.20351 | -117.49838 | 192° | 18km/h | 20283m | 7.0m/s | -53.2°C | 0% | 0hPa | 0V | 00:00:00 | 00:00:00 | 00:00:00 | |
| WB7NNF | 2026-09-04 06:38:41 | 48.20430 | -117.49901 | 182° | 20km/h | 20166m | 9.1m/s | -52.7°C | 0% | 0hPa | 0V | 00:00:00 | 00:00:00 | 00:00:00 | |
| WB7NNF | 2026-09-04 06:38:20 | 48.20456 | -117.50030 | 173° | 27km/h | 20033m | 3.9m/s | -52.5°C | 0% | 0hPa | 0V | 00:00:00 | 00:00:00 | 00:00:00 | |
| WB7NNF | 2026-09-04 06:37:58 | 48.20389 | -117.50195 | 48° | 26km/h | 19905m | 1.1m/s | -52.3°C | 0% | 0hPa | 0V | 00:00:00 | 00:00:00 | 00:00:00 | |
| WB7NNF | 2026-09-04 06:37:37 | 48.20293 | -117.50307 | 34° | 9km/h | 19786m | 1.3m/s | -52.0°C | 0% | 0hPa | 0V | 00:00:00 | 00:00:00 | 00:00:00 | |
| WB7NNF | 2026-09-04 06:37:13 | 48.20099 | -117.50430 | 35° | 18km/h | 19654m | 5.0m/s | -52.4°C | 0% | 0hPa | 0V | 00:00:00 | 00:00:00 | 00:00:00 | |
| WB7NNF | 2026-09-04 06:36:52 | 48.19858 | -117.50497 | 7° | 75km/h | 19551m | 6.7m/s | -52.6°C | 0% | 0hPa | 0V | 00:00:00 | 00:00:00 | 00:00:00 | |
| WB7NNF | 2026-09-04 06:36:32 | 48.19606 | -117.50514 | 12° | 58km/h | 19448m | 1.3m/s | -52.1°C | 0% | 0hPa | 0V | 00:00:00 | 00:00:00 | 00:00:00 | |
| WB7NNF | 2026-09-04 06:36:10 | 48.19397 | -117.50492 | 304° | 26km/h | 19341m | 2.3m/s | -51.2°C | 0% | 0hPa | 0V | 00:00:00 | 00:00:00 | 00:00:00 | |
| WB7NNF | 2026-09-04 06:35:49 | 48.19192 | -117.50493 | 4° | 46km/h | 19223m | 5.2m/s | -50.2°C | 0% | 0hPa | 0V | 00:00:00 | 00:00:00 | 00:00:00 | |
| WB7NNF | 2026-09-04 06:35:28 | 48.19035 | -117.50517 | 16° | 26km/h | 19108m | 5.1m/s | -50.6°C | 0% | 0hPa | 0V | 00:00:00 | 00:00:00 | 00:00:00 | |
| WB7NNF | 2026-09-04 06:35:06 | 48.18859 | -117.50577 | 87° | 15km/h | 18991m | 8.0m/s | -52.4°C | 0% | 0hPa | 0V | 00:00:00 | 00:00:00 | 00:00:00 | |
| WB7NNF | 2026-09-04 06:34:45 | 48.18726 | -117.50681 | 39° | 24km/h | 18889m | 7.1m/s | -51.9°C | 0% | 0hPa | 0V | 00:00:00 | 00:00:00 | 00:00:00 | |
| WB7NNF | 2026-09-04 06:34:25 | 48.18564 | -117.50836 | 13° | 49km/h | 18779m | 3.3m/s | -52.6°C | 0% | 0hPa | 0V | 00:00:00 | 00:00:00 | 00:00:00 | |
| WB7NNF | 2026-09-04 06:34:02 | 48.18379 | -117.51028 | 33° | 38km/h | 18677m | 6.5m/s | -53.3°C | 0% | 0hPa | 0V | 00:00:00 | 00:00:00 | 00:00:00 | |
| WB7NNF | 2026-09-04 06:33:42 | 48.18184 | -117.51131 | 355° | 35km/h | 18577m | 3.6m/s | -53.3°C | 0% | 0hPa | 0V | 00:00:00 | 00:00:00 | 00:00:00 | |
| WB7NNF | 2026-09-04 06:33:19 | 48.17992 | -117.51200 | 345° | 47km/h | 18472m | 7.0m/s | -52.7°C | 0% | 0hPa | 0V | 00:00:00 | 00:00:00 | 00:00:00 | |
| WB7NNF | 2026-09-04 06:32:57 | 48.17789 | -117.51236 | 349° | 9km/h | 18372m | 0.5m/s | -52.1°C | 0% | 0hPa | 0V | 00:00:00 | 00:00:00 | 00:00:00 | |
| WB7NNF | 2026-09-04 06:32:16 | 48.17465 | -117.51177 | 353° | 22km/h | 18179m | 5.0m/s | -51.2°C | 0% | 0hPa | 0V | 00:00:00 | 00:00:00 | 00:00:00 | |
| WB7NNF | 2026-09-04 06:31:56 | 48.17351 | -117.51102 | 6° | 11km/h | 18078m | 5.4m/s | -50.6°C | 0% | 0hPa | 0V | 00:00:00 | 00:00:00 | 00:00:00 | |
| WB7NNF | 2026-09-04 06:31:35 | 48.17232 | -117.51092 | 335° | 37km/h | 17987m | 3.4m/s | -50.5°C | 0% | 0hPa | 0V | 00:00:00 | 00:00:00 | 00:00:00 | |
| WB7NNF | 2026-09-04 06:31:13 | 48.17103 | -117.51121 | 347° | 38km/h | 17888m | 1.0m/s | -50.3°C | 0% | 0hPa | 0V | 00:00:00 | 00:00:00 | 00:00:00 | |
| WB7NNF | 2026-09-04 06:30:52 | 48.16940 | -117.51166 | 14° | 29km/h | 17790m | 5.8m/s | -50.2°C | 0% | 0hPa | 0V | 00:00:00 | 00:00:00 | 00:00:00 | |
| WB7NNF | 2026-09-04 06:30:31 | 48.16799 | -117.51227 | 4° | 40km/h | 17690m | 5.0m/s | -50.7°C | 0% | 0hPa | 0V | 00:00:00 | 00:00:00 | 00:00:00 | |
| WB7NNF | 2026-09-04 06:30:11 | 48.16637 | -117.51362 | 37° | 42km/h | 17584m | 6.1m/s | -50.7°C | 0% | 0hPa | 0V | 00:00:00 | 00:00:00 | 00:00:00 | |
| WB7NNF | 2026-09-04 06:29:50 | 48.16438 | -117.51515 | 55° | 44km/h | 17479m | 4.4m/s | -50.6°C | 0% | 0hPa | 0V | 00:00:00 | 00:00:00 | 00:00:00 | |
| WB7NNF | 2026-09-04 06:29:28 | 48.16240 | -117.51631 | 356° | 49km/h | 17376m | 2.1m/s | -50.4°C | 0% | 0hPa | 0V | 00:00:00 | 00:00:00 | 00:00:00 | |
| WB7NNF | 2026-09-04 06:29:04 | 48.16026 | -117.51731 | 354° | 64km/h | 17260m | 3.1m/s | -50.8°C | 0% | 0hPa | 0V | 00:00:00 | 00:00:00 | 00:00:00 | |
| WB7NNF | 2026-09-04 06:28:44 | 48.15834 | -117.51795 | 6° | 38km/h | 17168m | 4.4m/s | -50.5°C | 0% | 0hPa | 0V | 00:00:00 | 00:00:00 | 00:00:00 | |
| WB7NNF | 2026-09-04 06:28:21 | 48.15667 | -117.51844 | 359° | 31km/h | 17059m | 4.8m/s | -49.7°C | 0% | 0hPa | 0V | 00:00:00 | 00:00:00 | 00:00:00 | |
| WB7NNF | 2026-09-04 06:27:59 | 48.15512 | -117.51871 | 326° | 37km/h | 16970m | 2.5m/s | -49.1°C | 0% | 0hPa | 0V | 00:00:00 | 00:00:00 | 00:00:00 | |
| WB7NNF | 2026-09-04 06:27:36 | 48.15366 | -117.51869 | 327° | 44km/h | 16875m | 3.5m/s | -48.7°C | 0% | 0hPa | 0V | 00:00:00 | 00:00:00 | 00:00:00 | |
| WB7NNF | 2026-09-04 06:27:16 | 48.15201 | -117.51871 | 32° | 29km/h | 16787m | 3.1m/s | -48.9°C | 0% | 0hPa | 0V | 00:00:00 | 00:00:00 | 00:00:00 | |
| WB7NNF | 2026-09-04 06:26:55 | 48.15030 | -117.51924 | 357° | 46km/h | 16712m | 5.5m/s | -49.8°C | 0% | 0hPa | 0V | 00:00:00 | 00:00:00 | 00:00:00 | |
| WB7NNF | 2026-09-04 06:26:34 | 48.14858 | -117.52008 | 347° | 37km/h | 16632m | 2.8m/s | -50.1°C | 0% | 0hPa | 0V | 00:00:00 | 00:00:00 | 00:00:00 | |
| WB7NNF | 2026-09-04 06:26:12 | 48.14680 | -117.52029 | 337° | 46km/h | 16532m | 3.5m/s | -49.8°C | 0% | 0hPa | 0V | 00:00:00 | 00:00:00 | 00:00:00 | |
| WB7NNF | 2026-09-04 06:25:50 | 48.14551 | -117.52064 | 337° | 24km/h | 16435m | 3.7m/s | -49.7°C | 0% | 0hPa | 0V | 00:00:00 | 00:00:00 | 00:00:00 | |
| WB7NNF | 2026-09-04 06:25:27 | 48.14418 | -117.52158 | 342° | 38km/h | 16329m | 3.7m/s | -49.8°C | 0% | 0hPa | 0V | 00:00:00 | 00:00:00 | 00:00:00 | |
| WB7NNF | 2026-09-04 06:25:03 | 48.14245 | -117.52250 | 354° | 40km/h | 16216m | 1.5m/s | -49.7°C | 0% | 0hPa | 0V | 00:00:00 | 00:00:00 | 00:00:00 | |
| WB7NNF | 2026-09-04 06:24:39 | 48.13979 | -117.52306 | 338° | 53km/h | 16093m | 3.5m/s | -49.6°C | 0% | 0hPa | 0V | 00:00:00 | 00:00:00 | 00:00:00 | |
| WB7NNF | 2026-09-04 06:24:13 | 48.13631 | -117.52302 | 26° | 35km/h | 15971m | 1.7m/s | -49.5°C | 0% | 0hPa | 0V | 00:00:00 | 00:00:00 | 00:00:00 | |
| WB7NNF | 2026-09-04 06:23:52 | 48.13394 | -117.52311 | 344° | 46km/h | 15879m | 4.4m/s | -50.1°C | 0% | 0hPa | 0V | 00:00:00 | 00:00:00 | 00:00:00 | |
| WB7NNF | 2026-09-04 06:23:32 | 48.13184 | -117.52361 | 343° | 31km/h | 15779m | 1.2m/s | -50.6°C | 0% | 0hPa | 0V | 00:00:00 | 00:00:00 | 00:00:00 | |
| WB7NNF | 2026-09-04 06:23:11 | 48.13000 | -117.52466 | 23° | 40km/h | 15682m | 5.5m/s | -50.3°C | 0% | 0hPa | 0V | 00:00:00 | 00:00:00 | 00:00:00 | |
| WB7NNF | 2026-09-04 06:22:50 | 48.12839 | -117.52581 | 51° | 47km/h | 15595m | 5.4m/s | -50.1°C | 0% | 0hPa | 0V | 00:00:00 | 00:00:00 | 00:00:00 | |
| WB7NNF | 2026-09-04 06:22:27 | 48.12682 | -117.52734 | 38° | 31km/h | 15494m | 5.4m/s | -49.8°C | 0% | 0hPa | 0V | 00:00:00 | 00:00:00 | 00:00:00 | |
| WB7NNF | 2026-09-04 06:21:45 | 48.12295 | -117.53151 | 18° | 37km/h | 15308m | 4.8m/s | -49.8°C | 0% | 0hPa | 0V | 00:00:00 | 00:00:00 | 00:00:00 | |
| WB7NNF | 2026-09-04 06:21:23 | 48.12076 | -117.53272 | 26° | 33km/h | 15218m | 4.0m/s | -50.3°C | 0% | 0hPa | 0V | 00:00:00 | 00:00:00 | 00:00:00 | |
| WB7NNF | 2026-09-04 06:21:02 | 48.11850 | -117.53391 | 2° | 27km/h | 15127m | 3.2m/s | -49.6°C | 0% | 0hPa | 0V | 00:00:00 | 00:00:00 | 00:00:00 | |
| WB7NNF | 2026-09-04 06:20:41 | 48.11634 | -117.53550 | 20° | 40km/h | 15033m | 4.2m/s | -49.6°C | 0% | 0hPa | 0V | 00:00:00 | 00:00:00 | 00:00:00 | |
| WB7NNF | 2026-09-04 06:20:19 | 48.11383 | -117.53799 | 45° | 42km/h | 14942m | 6.1m/s | -49.6°C | 0% | 0hPa | 0V | 00:00:00 | 00:00:00 | 00:00:00 | |
| WB7NNF | 2026-09-04 06:19:59 | 48.11173 | -117.54060 | 43° | 49km/h | 14850m | 3.7m/s | -49.1°C | 0% | 0hPa | 0V | 00:00:00 | 00:00:00 | 00:00:00 | |
| WB7NNF | 2026-09-04 06:19:37 | 48.10985 | -117.54363 | 42° | 71km/h | 14752m | 6.8m/s | -49.0°C | 0% | 0hPa | 0V | 00:00:00 | 00:00:00 | 00:00:00 | |
| WB7NNF | 2026-09-04 06:19:16 | 48.10764 | -117.54658 | 48° | 35km/h | 14655m | 3.0m/s | -49.5°C | 0% | 0hPa | 0V | 00:00:00 | 00:00:00 | 00:00:00 | |
| WB7NNF | 2026-09-04 06:18:55 | 48.10471 | -117.54967 | 43° | 55km/h | 14555m | 2.3m/s | -50.0°C | 0% | 0hPa | 0V | 00:00:00 | 00:00:00 | 00:00:00 | |
| WB7NNF | 2026-09-04 06:18:33 | 48.10130 | -117.55310 | 53° | 69km/h | 14458m | 4.5m/s | -49.8°C | 0% | 0hPa | 0V | 00:00:00 | 00:00:00 | 00:00:00 | |
| WB7NNF | 2026-09-04 06:18:12 | 48.09800 | -117.55643 | 27° | 80km/h | 14373m | 4.0m/s | -49.9°C | 0% | 0hPa | 0V | 00:00:00 | 00:00:00 | 00:00:00 | |
| WB7NNF | 2026-09-04 06:17:52 | 48.09378 | -117.56019 | 21° | 89km/h | 14287m | 5.5m/s | -50.0°C | 0% | 0hPa | 0V | 00:00:00 | 00:00:00 | 00:00:00 | |
| WB7NNF | 2026-09-04 06:17:31 | 48.08933 | -117.56328 | 16° | 99km/h | 14207m | 3.9m/s | -49.7°C | 0% | 0hPa | 0V | 00:00:00 | 00:00:00 | 00:00:00 | |
| WB7NNF | 2026-09-04 06:17:11 | 48.08440 | -117.56640 | 21° | 100km/h | 14123m | 4.3m/s | -49.0°C | 0% | 0hPa | 0V | 00:00:00 | 00:00:00 | 00:00:00 | |
| WB7NNF | 2026-09-04 06:16:50 | 48.07981 | -117.56917 | 32° | 95km/h | 14043m | 3.8m/s | -48.9°C | 0% | 0hPa | 0V | 00:00:00 | 00:00:00 | 00:00:00 | |
| WB7NNF | 2026-09-04 06:16:30 | 48.07505 | -117.57179 | 27° | 102km/h | 13946m | 3.1m/s | -48.5°C | 0% | 0hPa | 0V | 00:00:00 | 00:00:00 | 00:00:00 | |
| WB7NNF | 2026-09-04 06:16:09 | 48.07083 | -117.57397 | 17° | 86km/h | 13858m | 5.0m/s | -48.3°C | 0% | 0hPa | 0V | 00:00:00 | 00:00:00 | 00:00:00 | |
| WB7NNF | 2026-09-04 06:15:49 | 48.06669 | -117.57639 | 17° | 82km/h | 13766m | 6.2m/s | -48.3°C | 0% | 0hPa | 0V | 00:00:00 | 00:00:00 | 00:00:00 | |
| WB7NNF | 2026-09-04 06:15:29 | 48.06266 | -117.57803 | 15° | 82km/h | 13679m | 5.9m/s | -48.3°C | 0% | 0hPa | 0V | 00:00:00 | 00:00:00 | 00:00:00 | |
| WB7NNF | 2026-09-04 06:15:08 | 48.05857 | -117.57952 | 22° | 73km/h | 13593m | 4.4m/s | -48.5°C | 0% | 0hPa | 0V | 00:00:00 | 00:00:00 | 00:00:00 | |
| WB7NNF | 2026-09-04 06:14:47 | 48.05462 | -117.58053 | 19° | 71km/h | 13502m | 5.2m/s | -48.3°C | 0% | 0hPa | 0V | 00:00:00 | 00:00:00 | 00:00:00 | |
| WB7NNF | 2026-09-04 06:14:26 | 48.05121 | -117.58138 | 6° | 71km/h | 13415m | 3.4m/s | -47.7°C | 0% | 0hPa | 0V | 00:00:00 | 00:00:00 | 00:00:00 | |
| WB7NNF | 2026-09-04 06:14:06 | 48.04785 | -117.58215 | 8° | 64km/h | 13326m | 5.3m/s | -47.7°C | 0% | 0hPa | 0V | 00:00:00 | 00:00:00 | 00:00:00 | |
| WB7NNF | 2026-09-04 06:13:45 | 48.04491 | -117.58264 | 12° | 58km/h | 13243m | 6.5m/s | -47.4°C | 0% | 0hPa | 0V | 00:00:00 | 00:00:00 | 00:00:00 | |
| WB7NNF | 2026-09-04 06:13:25 | 48.04210 | -117.58282 | 2° | 51km/h | 13153m | 5.7m/s | -47.1°C | 0% | 0hPa | 0V | 00:00:00 | 00:00:00 | 00:00:00 | |
| WB7NNF | 2026-09-04 06:13:04 | 48.03951 | -117.58304 | 7° | 57km/h | 13065m | 5.9m/s | -46.5°C | 0% | 0hPa | 0V | 00:00:00 | 00:00:00 | 00:00:00 | |
| WB7NNF | 2026-09-04 06:12:44 | 48.03667 | -117.58341 | 361° | 60km/h | 12959m | 5.2m/s | -45.8°C | 0% | 0hPa | 0V | 00:00:00 | 00:00:00 | 00:00:00 | |
| WB7NNF | 2026-09-04 06:12:23 | 48.03385 | -117.58428 | 9° | 55km/h | 12868m | 6.4m/s | -45.2°C | 0% | 0hPa | 0V | 00:00:00 | 00:00:00 | 00:00:00 | |
| WB7NNF | 2026-09-04 06:12:03 | 48.03059 | -117.58561 | 6° | 68km/h | 12773m | 5.6m/s | -45.2°C | 0% | 0hPa | 0V | 00:00:00 | 00:00:00 | 00:00:00 | |
| WB7NNF | 2026-09-04 06:11:42 | 48.02740 | -117.58721 | 28° | 64km/h | 12685m | 5.2m/s | -44.8°C | 0% | 0hPa | 0V | 00:00:00 | 00:00:00 | 00:00:00 | |
| WB7NNF | 2026-09-04 06:11:22 | 48.02415 | -117.58857 | 3° | 60km/h | 12590m | 4.7m/s | -45.2°C | 0% | 0hPa | 0V | 00:00:00 | 00:00:00 | 00:00:00 | |
| WB7NNF | 2026-09-04 06:11:01 | 48.02088 | -117.58989 | 7° | 64km/h | 12499m | 4.9m/s | -45.0°C | 0% | 0hPa | 0V | 00:00:00 | 00:00:00 | 00:00:00 | |
| WB7NNF | 2026-09-04 06:10:41 | 48.01760 | -117.59127 | 13° | 62km/h | 12406m | 5.8m/s | -44.6°C | 0% | 0hPa | 0V | 00:00:00 | 00:00:00 | 00:00:00 | |
| WB7NNF | 2026-09-04 06:10:20 | 48.01458 | -117.59238 | 17° | 60km/h | 12319m | 4.0m/s | -44.9°C | 0% | 0hPa | 0V | 00:00:00 | 00:00:00 | 00:00:00 | |
| WB7NNF | 2026-09-04 06:10:00 | 48.01145 | -117.59360 | 22° | 62km/h | 12231m | 4.6m/s | -44.7°C | 0% | 0hPa | 0V | 00:00:00 | 00:00:00 | 00:00:00 | |
| WB7NNF | 2026-09-04 06:09:39 | 48.00851 | -117.59480 | 6° | 66km/h | 12146m | 5.9m/s | -44.8°C | 0% | 0hPa | 0V | 00:00:00 | 00:00:00 | 00:00:00 | |
| WB7NNF | 2026-09-04 06:09:19 | 48.00513 | -117.59593 | 17° | 66km/h | 12057m | 4.3m/s | -45.3°C | 0% | 0hPa | 0V | 00:00:00 | 00:00:00 | 00:00:00 | |
| WB7NNF | 2026-09-04 06:08:58 | 48.00112 | -117.59711 | 17° | 89km/h | 11971m | 3.0m/s | -45.4°C | 0% | 0hPa | 0V | 00:00:00 | 00:00:00 | 00:00:00 | |
| WB7NNF | 2026-09-04 06:08:36 | 47.99734 | -117.59830 | 12° | 51km/h | 11884m | 4.6m/s | -45.7°C | 0% | 0hPa | 0V | 00:00:00 | 00:00:00 | 00:00:00 | |
| WB7NNF | 2026-09-04 06:08:14 | 47.99302 | -117.59960 | 14° | 77km/h | 11792m | 4.5m/s | -45.8°C | 0% | 0hPa | 0V | 00:00:00 | 00:00:00 | 00:00:00 | |
| WB7NNF | 2026-09-04 06:07:53 | 47.98925 | -117.60068 | 10° | 77km/h | 11707m | 4.7m/s | -46.0°C | 0% | 0hPa | 0V | 00:00:00 | 00:00:00 | 00:00:00 | |
| WB7NNF | 2026-09-04 06:07:32 | 47.98553 | -117.60139 | 9° | 73km/h | 11624m | 5.2m/s | -45.9°C | 0% | 0hPa | 0V | 00:00:00 | 00:00:00 | 00:00:00 | |
| WB7NNF | 2026-09-04 06:07:06 | 47.98132 | -117.60262 | 22° | 64km/h | 11516m | 3.1m/s | -45.8°C | 0% | 0hPa | 0V | 00:00:00 | 00:00:00 | 00:00:00 | |
| WB7NNF | 2026-09-04 06:06:45 | 47.97811 | -117.60349 | 15° | 62km/h | 11435m | 2.6m/s | -45.8°C | 0% | 0hPa | 0V | 00:00:00 | 00:00:00 | 00:00:00 | |
| WB7NNF | 2026-09-04 06:06:25 | 47.97486 | -117.60421 | 9° | 62km/h | 11348m | 4.8m/s | -45.6°C | 0% | 0hPa | 0V | 00:00:00 | 00:00:00 | 00:00:00 | |
| WB7NNF | 2026-09-04 06:06:01 | 47.97130 | -117.60547 | 23° | 68km/h | 11250m | 3.2m/s | -45.1°C | 0% | 0hPa | 0V | 00:00:00 | 00:00:00 | 00:00:00 | |
| WB7NNF | 2026-09-04 06:05:35 | 47.96744 | -117.60742 | 10° | 69km/h | 11139m | 2.7m/s | -45.2°C | 0% | 0hPa | 0V | 00:00:00 | 00:00:00 | 00:00:00 | |
| WB7NNF | 2026-09-04 06:05:14 | 47.96408 | -117.60940 | 23° | 51km/h | 11042m | 5.9m/s | -45.5°C | 0% | 0hPa | 0V | 00:00:00 | 00:00:00 | 00:00:00 | |
| WB7NNF | 2026-09-04 06:04:53 | 47.96080 | -117.61159 | 19° | 95km/h | 10948m | 3.0m/s | -45.9°C | 0% | 0hPa | 0V | 00:00:00 | 00:00:00 | 00:00:00 | |
| WB7NNF | 2026-09-04 06:04:33 | 47.95675 | -117.61444 | 29° | 97km/h | 10855m | 3.6m/s | -47.1°C | 0% | 0hPa | 0V | 00:00:00 | 00:00:00 | 00:00:00 | |
| WB7NNF | 2026-09-04 06:04:12 | 47.95268 | -117.61659 | 20° | 95km/h | 10766m | 7.3m/s | -47.3°C | 0% | 0hPa | 0V | 00:00:00 | 00:00:00 | 00:00:00 | |
| WB7NNF | 2026-09-04 06:03:52 | 47.94780 | -117.61965 | 13° | 117km/h | 10645m | 4.3m/s | -47.8°C | 0% | 0hPa | 0V | 00:00:00 | 00:00:00 | 00:00:00 | |
| WB7NNF | 2026-09-04 06:03:31 | 47.94240 | -117.62228 | 13° | 128km/h | 10563m | 4.2m/s | -48.2°C | 0% | 0hPa | 0V | 00:00:00 | 00:00:00 | 00:00:00 | |
| WB7NNF | 2026-09-04 06:03:11 | 47.93657 | -117.62492 | 14° | 119km/h | 10479m | 4.0m/s | -48.6°C | 0% | 0hPa | 0V | 00:00:00 | 00:00:00 | 00:00:00 | |
| WB7NNF | 2026-09-04 06:02:50 | 47.93124 | -117.62723 | 10° | 124km/h | 10394m | 3.8m/s | -49.6°C | 0% | 0hPa | 0V | 00:00:00 | 00:00:00 | 00:00:00 | |
| WB7NNF | 2026-09-04 06:02:30 | 47.92505 | -117.62990 | 16° | 120km/h | 10299m | 3.7m/s | -49.7°C | 0% | 0hPa | 0V | 00:00:00 | 00:00:00 | 00:00:00 | |
| WB7NNF | 2026-09-04 06:02:09 | 47.91927 | -117.63274 | 15° | 117km/h | 10193m | 6.4m/s | -49.7°C | 0% | 0hPa | 0V | 00:00:00 | 00:00:00 | 00:00:00 | |
| WB7NNF | 2026-09-04 06:01:49 | 47.91194 | -117.63490 | 6° | 144km/h | 10076m | 4.9m/s | -51.6°C | 0% | 0hPa | 0V | 00:00:00 | 00:00:00 | 00:00:00 | |
| WB7NNF | 2026-09-04 06:01:28 | 47.90479 | -117.63561 | 10° | 148km/h | 9987m | 6.5m/s | -50.9°C | 0% | 0hPa | 0V | 00:00:00 | 00:00:00 | 00:00:00 | |
| WB7NNF | 2026-09-04 06:01:08 | 47.89697 | -117.63575 | 5° | 144km/h | 9888m | 6.8m/s | -50.3°C | 0% | 0hPa | 0V | 00:00:00 | 00:00:00 | 00:00:00 | |
| WB7NNF | 2026-09-04 06:00:47 | 47.89005 | -117.63598 | 2° | 142km/h | 9797m | 4.9m/s | -49.6°C | 0% | 0hPa | 0V | 00:00:00 | 00:00:00 | 00:00:00 | |
| WB7NNF | 2026-09-04 06:00:27 | 47.88290 | -117.63629 | 356° | 130km/h | 9707m | 2.5m/s | -48.8°C | 0% | 0hPa | 0V | 00:00:00 | 00:00:00 | 00:00:00 | |
| WB7NNF | 2026-09-04 06:00:06 | 47.87647 | -117.63649 | 10° | 130km/h | 9612m | 5.9m/s | -48.0°C | 0% | 0hPa | 0V | 00:00:00 | 00:00:00 | 00:00:00 | |
| WB7NNF | 2026-09-04 05:59:42 | 47.86820 | -117.63713 | 4° | 141km/h | 9476m | 8.2m/s | -46.8°C | 0% | 0hPa | 0V | 00:00:00 | 00:00:00 | 00:00:00 | |
| WB7NNF | 2026-09-04 05:59:21 | 47.86171 | -117.63698 | 8° | 124km/h | 9359m | 4.5m/s | -45.7°C | 0% | 0hPa | 0V | 00:00:00 | 00:00:00 | 00:00:00 | |
| WB7NNF | 2026-09-04 05:59:01 | 47.85499 | -117.63739 | 9° | 122km/h | 9239m | 3.6m/s | -44.6°C | 0% | 0hPa | 0V | 00:00:00 | 00:00:00 | 00:00:00 | |
| WB7NNF | 2026-09-04 05:58:40 | 47.84860 | -117.63786 | 358° | 102km/h | 9110m | 5.4m/s | -43.5°C | 0% | 0hPa | 0V | 00:00:00 | 00:00:00 | 00:00:00 | |
| WB7NNF | 2026-09-04 05:58:18 | 47.84298 | -117.63771 | 11° | 124km/h | 8994m | 5.5m/s | -42.5°C | 0% | 0hPa | 0V | 00:00:00 | 00:00:00 | 00:00:00 | |
| WB7NNF | 2026-09-04 05:57:57 | 47.83696 | -117.63824 | 357° | 113km/h | 8875m | 6.2m/s | -41.4°C | 0% | 0hPa | 0V | 00:00:00 | 00:00:00 | 00:00:00 | |
| WB7NNF | 2026-09-04 05:57:37 | 47.83108 | -117.63854 | 353° | 104km/h | 8783m | 6.3m/s | -40.7°C | 0% | 0hPa | 0V | 00:00:00 | 00:00:00 | 00:00:00 | |
| WB7NNF | 2026-09-04 05:57:16 | 47.82555 | -117.63875 | 360° | 130km/h | 8675m | 4.2m/s | -39.8°C | 0% | 0hPa | 0V | 00:00:00 | 00:00:00 | 00:00:00 | |
| WB7NNF | 2026-09-04 05:56:52 | 47.81922 | -117.63915 | 358° | 91km/h | 8551m | 4.2m/s | -38.6°C | 0% | 0hPa | 0V | 00:00:00 | 00:00:00 | 00:00:00 | |
| WB7NNF | 2026-09-04 05:56:31 | 47.81350 | -117.63836 | 2° | 120km/h | 8435m | 4.9m/s | -37.6°C | 0% | 0hPa | 0V | 00:00:00 | 00:00:00 | 00:00:00 | |
| WB7NNF | 2026-09-04 05:56:08 | 47.80734 | -117.63851 | 12° | 122km/h | 8311m | 5.6m/s | -36.5°C | 0% | 0hPa | 0V | 00:00:00 | 00:00:00 | 00:00:00 | |
| WB7NNF | 2026-09-04 05:55:41 | 47.80039 | -117.63905 | 358° | 100km/h | 8182m | 5.5m/s | -35.4°C | 0% | 0hPa | 0V | 00:00:00 | 00:00:00 | 00:00:00 | |
| WB7NNF | 2026-09-04 05:55:20 | 47.79483 | -117.63918 | 353° | 126km/h | 8088m | 2.3m/s | -34.5°C | 0% | 0hPa | 0V | 00:00:00 | 00:00:00 | 00:00:00 | |
| WB7NNF | 2026-09-04 05:55:00 | 47.78938 | -117.63914 | 3° | 108km/h | 7996m | 5.1m/s | -33.8°C | 0% | 0hPa | 0V | 00:00:00 | 00:00:00 | 00:00:00 | |
| WB7NNF | 2026-09-04 05:54:39 | 47.78424 | -117.63922 | 352° | 97km/h | 7910m | 5.4m/s | -33.2°C | 0% | 0hPa | 0V | 00:00:00 | 00:00:00 | 00:00:00 | |
| WB7NNF | 2026-09-04 05:54:19 | 47.77902 | -117.63872 | 7° | 80km/h | 7819m | 3.5m/s | -32.6°C | 0% | 0hPa | 0V | 00:00:00 | 00:00:00 | 00:00:00 | |
| WB7NNF | 2026-09-04 05:53:58 | 47.77367 | -117.63839 | 360° | 84km/h | 7725m | 3.5m/s | -31.9°C | 0% | 0hPa | 0V | 00:00:00 | 00:00:00 | 00:00:00 | |
| WB7NNF | 2026-09-04 05:53:32 | 47.76794 | -117.63809 | 352° | 95km/h | 7616m | 4.2m/s | -31.1°C | 0% | 0hPa | 0V | 00:00:00 | 00:00:00 | 00:00:00 | |
| WB7NNF | 2026-09-04 05:52:55 | 47.75978 | -117.63688 | 3° | 68km/h | 7428m | 3.6m/s | -29.5°C | 0% | 0hPa | 0V | 00:00:00 | 00:00:00 | 00:00:00 | |
| WB7NNF | 2026-09-04 05:52:34 | 47.75555 | -117.63653 | 344° | 86km/h | 7317m | 3.2m/s | -28.8°C | 0% | 0hPa | 0V | 00:00:00 | 00:00:00 | 00:00:00 | |
| WB7NNF | 2026-09-04 05:52:14 | 47.75128 | -117.63613 | 360° | 93km/h | 7221m | 4.5m/s | -28.2°C | 0% | 0hPa | 0V | 00:00:00 | 00:00:00 | 00:00:00 | |
| WB7NNF | 2026-09-04 05:51:31 | 47.74268 | -117.63705 | 9° | 89km/h | 6985m | 4.6m/s | -26.8°C | 0% | 0hPa | 0V | 00:00:00 | 00:00:00 | 00:00:00 | |
| WB7NNF | 2026-09-04 05:51:10 | 47.73897 | -117.63762 | 20° | 77km/h | 6881m | 4.0m/s | -26.1°C | 0% | 0hPa | 0V | 00:00:00 | 00:00:00 | 00:00:00 | |
| WB7NNF | 2026-09-04 05:50:48 | 47.73539 | -117.63849 | 357° | 84km/h | 6762m | 3.1m/s | -25.2°C | 0% | 0hPa | 0V | 00:00:00 | 00:00:00 | 00:00:00 | |
| WB7NNF | 2026-09-04 05:50:24 | 47.73134 | -117.63899 | 13° | 58km/h | 6643m | 6.2m/s | -24.2°C | 0% | 0hPa | 0V | 00:00:00 | 00:00:00 | 00:00:00 | |
| WB7NNF | 2026-09-04 05:50:03 | 47.72809 | -117.63975 | 5° | 49km/h | 6520m | 5.0m/s | -23.4°C | 0% | 0hPa | 0V | 00:00:00 | 00:00:00 | 00:00:00 | |
| WB7NNF | 2026-09-04 05:49:43 | 47.72516 | -117.64041 | 28° | 66km/h | 6415m | 5.8m/s | -22.7°C | 0% | 0hPa | 0V | 00:00:00 | 00:00:00 | 00:00:00 | |
| WB7NNF | 2026-09-04 05:49:22 | 47.72197 | -117.64110 | 31° | 64km/h | 6310m | 5.4m/s | -21.9°C | 0% | 0hPa | 0V | 00:00:00 | 00:00:00 | 00:00:00 | |
| WB7NNF | 2026-09-04 05:48:50 | 47.71721 | -117.64225 | 22° | 73km/h | 6130m | 4.4m/s | -20.8°C | 0% | 0hPa | 0V | 00:00:00 | 00:00:00 | 00:00:00 | |
| WB7NNF | 2026-09-04 05:47:30 | 47.70602 | -117.64631 | 7° | 49km/h | 5710m | 7.4m/s | 0°C | 0% | 0hPa | 0V | 00:00:00 | 00:00:00 | 00:00:00 | |
| WB7NNF | 2026-09-04 05:45:32 | 47.69227 | -117.65143 | 24° | 51km/h | 5077m | 4.7m/s | -14.0°C | 0% | 0hPa | 0V | 00:00:00 | 00:00:00 | 00:00:00 |